Time;durP1;ratioP1;P1;durP2;ratioP2;P2;SDS_P1;SDS_P2;PMS_P1;PMS_P2;Temp;Humidity;BMP_temperature;BMP_pressure;BME280_temperature;BME280_humidity;BME280_pressure;Samples;Min_cycle;Max_cycle;Signal;HPM_P1;HPM_P2
2021/07/31 00:01:56;;;;;;;13.80;5.22;;;;;;;30.32;37.63;100176.44;5030390;28;20044;-70
2021/07/31 00:04:23;;;;;;;14.18;5.10;;;;;;;30.22;37.66;100175.38;5030016;28;20034;-70
2021/07/31 00:06:51;;;;;;;17.33;5.25;;;;;;;30.10;37.96;100180.78;5030778;28;20487;-70
2021/07/31 00:09:18;;;;;;;22.17;6.15;;;;;;;29.96;38.48;100175.47;5028110;28;20053;-71
2021/07/31 00:11:47;;;;;;;17.08;5.53;;;;;;;29.88;38.51;100177.84;5019210;28;20037;-71
2021/07/31 00:14:14;;;;;;;13.65;4.88;;;;;;;29.85;38.53;100177.22;5029628;28;20042;-71
2021/07/31 00:16:41;;;;;;;19.02;5.40;;;;;;;29.82;38.45;100177.44;5029341;28;20049;-71
2021/07/31 00:19:08;;;;;;;16.77;5.55;;;;;;;29.80;38.67;100168.53;5029838;28;20041;-71
2021/07/31 00:21:35;;;;;;;17.10;5.57;;;;;;;29.85;38.44;100175.38;5028476;28;20044;-69
2021/07/31 00:24:03;;;;;;;18.05;5.82;;;;;;;29.91;38.06;100174.06;5032400;28;20050;-71
2021/07/31 00:26:30;;;;;;;14.55;4.95;;;;;;;29.91;38.01;100177.66;5028324;28;20046;-71
2021/07/31 00:29:01;;;;;;;16.90;5.72;;;;;;;29.93;38.01;100164.81;5028277;28;20041;-70
2021/07/31 00:31:28;;;;;;;14.55;5.38;;;;;;;29.93;37.93;100172.13;5034277;28;20048;-72
2021/07/31 00:33:56;;;;;;;19.88;5.13;;;;;;;29.90;38.07;100175.91;5034375;28;20491;-71
2021/07/31 00:36:24;;;;;;;15.65;5.05;;;;;;;29.88;37.96;100176.97;5034308;28;20057;-71
2021/07/31 00:38:51;;;;;;;12.65;5.57;;;;;;;29.85;37.93;100179.94;5032933;28;20042;-71
2021/07/31 00:41:18;;;;;;;17.50;5.18;;;;;;;29.79;37.79;100175.84;5027088;28;20056;-71
2021/07/31 00:43:46;;;;;;;14.45;4.60;;;;;;;29.89;37.51;100176.00;5034096;28;20042;-71
2021/07/31 00:46:15;;;;;;;12.13;4.82;;;;;;;29.99;37.12;100158.94;5033759;28;20045;-71
2021/07/31 00:48:43;;;;;;;14.60;5.32;;;;;;;29.93;37.46;100159.34;5033815;28;20045;-70
2021/07/31 00:51:10;;;;;;;19.73;5.15;;;;;;;29.93;37.45;100170.25;5033995;28;20510;-71
2021/07/31 00:53:38;;;;;;;17.02;5.32;;;;;;;29.91;37.21;100164.03;5033763;28;20064;-70
2021/07/31 00:56:06;;;;;;;13.73;5.70;;;;;;;29.88;37.13;100172.41;5027681;28;20038;-67
2021/07/31 00:58:35;;;;;;;15.20;5.40;;;;;;;29.89;37.23;100170.56;5032837;28;20049;-72
2021/07/31 01:01:03;;;;;;;16.85;5.03;;;;;;;29.94;37.20;100177.44;5030761;28;20049;-71
2021/07/31 01:03:32;;;;;;;15.98;5.80;;;;;;;30.02;36.91;100179.59;5033012;28;20403;-71
2021/07/31 01:05:59;;;;;;;17.20;5.38;;;;;;;30.05;36.73;100180.25;5028994;28;20045;-71
2021/07/31 01:08:27;;;;;;;15.05;5.32;;;;;;;30.06;36.58;100170.22;5033252;28;20399;-71
2021/07/31 01:10:55;;;;;;;15.20;4.97;;;;;;;30.07;36.67;100166.50;5032896;28;20440;-71
2021/07/31 01:13:22;;;;;;;18.67;5.25;;;;;;;30.05;36.51;100179.38;5033893;28;20049;-71
2021/07/31 01:16:00;;;;;;;13.10;5.03;;;;;;;30.06;36.83;100170.22;5033208;28;20038;-71
2021/07/31 01:18:28;;;;;;;15.05;5.30;;;;;;;30.04;36.86;100172.19;5033155;28;20049;-71
2021/07/31 01:20:57;;;;;;;17.00;5.18;;;;;;;30.02;36.95;100175.03;5026549;28;20444;-71
2021/07/31 01:23:26;;;;;;;12.90;4.97;;;;;;;30.01;36.85;100175.13;5030174;28;20415;-71
2021/07/31 01:25:53;;;;;;;12.95;4.80;;;;;;;30.00;36.80;100184.28;5031834;28;20042;-71
2021/07/31 01:28:21;;;;;;;15.48;4.93;;;;;;;29.96;37.01;100172.75;5033482;28;20041;-71
2021/07/31 01:30:48;;;;;;;16.75;4.97;;;;;;;29.93;37.07;100174.84;5027884;28;20041;-71
2021/07/31 01:33:15;;;;;;;16.77;5.57;;;;;;;29.87;37.52;100169.78;5030254;28;20057;-72
2021/07/31 01:35:43;;;;;;;17.42;5.93;;;;;;;29.82;37.63;100172.88;5024751;28;20041;-70
2021/07/31 01:38:10;;;;;;;14.00;4.88;;;;;;;29.77;37.92;100175.06;5032996;28;20033;-72
2021/07/31 01:40:39;;;;;;;16.15;5.30;;;;;;;29.73;37.86;100174.41;5032753;28;20741;-72
2021/07/31 01:43:06;;;;;;;17.45;5.15;;;;;;;29.70;37.76;100176.50;5031521;28;20038;-67
2021/07/31 01:45:33;;;;;;;15.40;5.55;;;;;;;29.64;37.97;100174.22;5033301;28;20045;-71
2021/07/31 01:48:00;;;;;;;16.67;5.45;;;;;;;29.59;38.00;100168.25;5028685;28;20424;-71
2021/07/31 01:50:28;;;;;;;13.48;5.55;;;;;;;29.58;37.95;100167.38;5012828;28;20054;-72
2021/07/31 01:52:55;;;;;;;11.73;5.15;;;;;;;29.58;37.88;100169.22;5017942;28;20049;-71
2021/07/31 01:55:22;;;;;;;19.08;5.05;;;;;;;29.54;37.95;100176.72;5030581;28;20049;-71
2021/07/31 01:57:51;;;;;;;13.55;5.18;;;;;;;29.48;38.19;100173.56;5031020;28;20045;-71
2021/07/31 02:00:19;;;;;;;13.82;5.43;;;;;;;29.44;38.14;100177.50;5032528;28;20058;-71
2021/07/31 02:02:46;;;;;;;14.75;4.75;;;;;;;29.44;38.20;100172.06;5031887;28;20045;-71
2021/07/31 02:05:13;;;;;;;17.35;6.00;;;;;;;29.38;38.38;100181.53;5028750;28;20045;-70
2021/07/31 02:07:40;;;;;;;15.13;5.45;;;;;;;29.40;38.41;100173.28;5032214;28;20042;-71
2021/07/31 02:10:09;;;;;;;13.18;5.15;;;;;;;29.43;38.22;100175.75;5030280;28;20403;-71
2021/07/31 02:12:36;;;;;;;15.82;5.57;;;;;;;29.47;38.21;100177.31;5030851;28;20041;-66
2021/07/31 02:15:06;;;;;;;14.70;5.53;;;;;;;29.48;38.13;100169.00;5032706;28;20041;-71
2021/07/31 02:17:34;;;;;;;18.17;5.10;;;;;;;29.46;38.13;100170.13;5031713;28;20045;-71
2021/07/31 02:20:01;;;;;;;16.30;5.28;;;;;;;29.45;38.14;100174.69;5030990;28;20041;-71
2021/07/31 02:22:28;;;;;;;18.38;5.55;;;;;;;29.40;38.36;100181.44;5031140;28;20053;-72
2021/07/31 02:24:56;;;;;;;18.77;5.13;;;;;;;29.31;38.63;100181.09;5030095;28;21052;-71
2021/07/31 02:27:23;;;;;;;17.98;4.93;;;;;;;29.31;38.73;100189.25;5030646;28;20053;-70
2021/07/31 02:29:50;;;;;;;20.13;5.38;;;;;;;29.29;38.62;100188.47;5032027;28;20073;-71
2021/07/31 02:32:19;;;;;;;18.20;5.13;;;;;;;29.34;38.39;100193.63;5031937;28;20041;-71
2021/07/31 02:34:46;;;;;;;13.30;4.57;;;;;;;29.30;38.59;100187.50;5028290;28;20041;-71
2021/07/31 02:37:14;;;;;;;19.08;5.95;;;;;;;29.32;38.58;100191.00;5022731;28;20400;-71
2021/07/31 02:39:42;;;;;;;19.17;5.47;;;;;;;29.32;38.62;100187.41;5029868;28;20041;-71
2021/07/31 02:42:09;;;;;;;16.20;5.57;;;;;;;29.33;38.67;100197.31;5030593;28;20041;-72
2021/07/31 02:44:36;;;;;;;16.60;5.85;;;;;;;29.31;38.65;100191.09;5031271;28;20046;-67
2021/07/31 02:47:04;;;;;;;13.95;5.07;;;;;;;29.31;38.58;100186.53;5030603;28;20044;-71
2021/07/31 02:49:33;;;;;;;18.15;5.55;;;;;;;29.32;38.51;100193.69;5030904;28;20045;-71
2021/07/31 02:52:00;;;;;;;13.57;5.82;;;;;;;29.28;38.61;100189.44;5030125;28;20045;-71
2021/07/31 02:54:28;;;;;;;16.33;5.50;;;;;;;29.16;39.12;100190.31;5031171;28;20399;-71
2021/07/31 02:56:55;;;;;;;16.65;5.95;;;;;;;29.07;39.28;100182.81;5022538;28;20052;-73
2021/07/31 02:59:22;;;;;;;19.55;5.57;;;;;;;28.93;39.48;100194.66;5027929;28;20049;-71
2021/07/31 03:01:50;;;;;;;24.25;6.25;;;;;;;28.84;39.67;100189.84;5029099;28;20033;-72
2021/07/31 03:04:17;;;;;;;14.00;5.45;;;;;;;28.88;39.40;100191.38;5030130;28;20602;-71
2021/07/31 03:06:47;;;;;;;16.30;5.85;;;;;;;28.91;39.38;100196.59;5031559;28;20038;-72
2021/07/31 03:09:14;;;;;;;19.75;5.75;;;;;;;28.93;39.51;100210.09;5031178;28;20040;-71
2021/07/31 03:11:41;;;;;;;12.75;4.75;;;;;;;28.88;39.54;100206.84;5025028;28;20052;-71
2021/07/31 03:14:09;;;;;;;14.95;5.70;;;;;;;28.91;39.58;100201.16;5028290;28;20046;-71
2021/07/31 03:16:36;;;;;;;16.92;5.20;;;;;;;28.90;39.65;100202.16;5029770;28;20415;-69
2021/07/31 03:19:04;;;;;;;17.98;5.40;;;;;;;28.84;39.96;100197.13;5030565;28;20049;-73
2021/07/31 03:21:31;;;;;;;17.13;5.55;;;;;;;28.73;40.40;100196.97;5030384;28;20049;-71
2021/07/31 03:24:00;;;;;;;15.05;5.38;;;;;;;28.66;40.39;100201.09;5029206;28;20420;-71
2021/07/31 03:26:27;;;;;;;16.35;5.55;;;;;;;28.57;40.58;100198.97;5029605;28;20399;-71
2021/07/31 03:28:54;;;;;;;21.77;6.15;;;;;;;28.50;40.65;100201.25;5017969;28;20522;-71
2021/07/31 03:31:22;;;;;;;20.00;5.63;;;;;;;28.56;40.39;100198.09;5011191;28;20049;-71
2021/07/31 03:33:50;;;;;;;15.85;5.18;;;;;;;28.63;40.41;100201.28;5027955;28;20038;-71
2021/07/31 03:36:17;;;;;;;22.50;5.88;;;;;;;28.55;40.68;100199.94;5014873;28;20417;-71
2021/07/31 03:38:45;;;;;;;21.50;5.63;;;;;;;28.51;40.96;100206.59;5030522;28;20037;-71
2021/07/31 03:41:14;;;;;;;22.77;6.70;;;;;;;28.47;41.35;100207.78;5030570;28;20507;-71
2021/07/31 03:43:41;;;;;;;20.20;5.63;;;;;;;28.48;41.26;100200.50;5021650;28;20045;-71
2021/07/31 03:46:09;;;;;;;21.98;6.18;;;;;;;28.52;41.13;100199.31;5027434;28;20042;-70
2021/07/31 03:48:36;;;;;;;39.72;7.20;;;;;;;28.53;40.97;100209.19;5030857;28;20113;-71
2021/07/31 03:51:03;;;;;;;22.58;7.18;;;;;;;28.57;41.18;100208.00;5030463;28;20483;-70
2021/07/31 03:53:31;;;;;;;17.85;6.57;;;;;;;28.64;41.11;100208.47;5029810;28;20052;-71
2021/07/31 03:55:58;;;;;;;16.40;5.32;;;;;;;28.65;41.23;100210.22;5014252;28;20068;-71
2021/07/31 03:58:27;;;;;;;18.83;5.88;;;;;;;28.68;41.25;100208.16;5017789;28;20065;-71
2021/07/31 04:00:54;;;;;;;22.50;6.25;;;;;;;28.82;40.97;100208.09;5029149;28;20108;-71
2021/07/31 04:03:21;;;;;;;16.52;5.75;;;;;;;28.98;40.80;100205.22;5030105;28;20045;-71
2021/07/31 04:05:48;;;;;;;16.30;5.15;;;;;;;29.10;40.93;100215.22;5030461;28;20037;-71
2021/07/31 04:08:16;;;;;;;18.92;5.68;;;;;;;29.17;40.87;100211.09;5030322;28;20045;-70
2021/07/31 04:10:43;;;;;;;21.65;7.00;;;;;;;29.23;40.96;100216.09;5029128;28;20113;-71
2021/07/31 04:13:10;;;;;;;19.85;6.35;;;;;;;29.35;41.03;100221.69;5029869;28;20044;-71
2021/07/31 04:15:41;;;;;;;19.75;6.00;;;;;;;29.43;41.40;100224.72;5028756;28;20103;-71
2021/07/31 04:18:09;;;;;;;20.67;7.18;;;;;;;29.61;41.13;100227.00;5029868;28;20076;-70
2021/07/31 04:20:36;;;;;;;16.38;5.75;;;;;;;29.79;40.97;100226.69;5029028;28;20052;-71
2021/07/31 04:23:04;;;;;;;25.15;6.90;;;;;;;29.89;40.96;100234.03;5023428;28;20503;-71
2021/07/31 04:25:31;;;;;;;25.55;6.60;;;;;;;30.01;41.20;100229.59;5029455;28;20041;-71
2021/07/31 04:27:58;;;;;;;20.45;6.07;;;;;;;30.19;41.48;100230.09;5030546;28;20486;-71
2021/07/31 04:30:27;;;;;;;18.25;5.97;;;;;;;30.34;41.15;100237.09;5025469;28;20061;-71
2021/07/31 04:32:56;;;;;;;19.50;5.90;;;;;;;30.47;41.02;100237.91;5029018;28;20521;-71
2021/07/31 04:35:24;;;;;;;21.08;6.50;;;;;;;30.59;41.49;100236.19;5030598;28;20065;-71
2021/07/31 04:37:52;;;;;;;18.50;5.57;;;;;;;30.77;41.18;100238.38;5030099;28;20042;-71
2021/07/31 04:40:19;;;;;;;20.08;5.60;;;;;;;30.97;41.27;100246.88;5030341;28;20050;-71
2021/07/31 04:42:46;;;;;;;15.35;5.78;;;;;;;31.15;40.84;100240.00;5027684;28;20057;-71
2021/07/31 04:45:14;;;;;;;14.90;5.45;;;;;;;31.31;40.60;100226.88;5021750;28;20049;-71
2021/07/31 04:47:42;;;;;;;17.85;5.88;;;;;;;31.50;40.28;100235.38;5022218;28;20518;-71
2021/07/31 04:50:13;;;;;;;22.17;5.82;;;;;;;31.66;39.88;100238.63;5030214;28;20042;-71
2021/07/31 04:52:41;;;;;;;15.57;5.32;;;;;;;31.85;40.14;100239.88;5022031;28;20178;-71
2021/07/31 04:55:09;;;;;;;17.52;5.32;;;;;;;32.08;39.81;100244.34;5029780;28;20041;-71
2021/07/31 04:57:36;;;;;;;16.88;5.28;;;;;;;32.29;39.30;100245.34;5029903;28;20052;-71
2021/07/31 05:00:04;;;;;;;15.48;4.57;;;;;;;32.53;39.04;100244.28;5028218;28;20837;-71
2021/07/31 05:02:33;;;;;;;15.73;4.88;;;;;;;32.75;38.55;100245.09;5026154;28;20042;-71
2021/07/31 05:05:01;;;;;;;19.60;5.35;;;;;;;32.92;38.09;100254.59;5024785;28;20262;-71
2021/07/31 05:07:29;;;;;;;12.23;4.97;;;;;;;33.15;37.16;100256.19;5026821;28;20116;-71
2021/07/31 05:09:57;;;;;;;17.45;5.10;;;;;;;33.41;36.40;100242.19;5013775;28;20045;-70
2021/07/31 05:12:24;;;;;;;19.63;5.32;;;;;;;33.65;36.25;100250.94;5029393;28;20042;-70
2021/07/31 05:14:52;;;;;;;16.85;7.35;;;;;;;33.85;36.24;100260.16;5032013;28;20046;-71
2021/07/31 05:17:21;;;;;;;11.98;4.63;;;;;;;34.01;35.10;100253.16;5014238;28;20065;-70
2021/07/31 05:19:48;;;;;;;16.02;5.63;;;;;;;34.29;34.14;100253.41;5032021;28;20041;-71
2021/07/31 05:22:16;;;;;;;17.80;5.45;;;;;;;34.59;33.54;100250.59;5029849;28;20044;-71
2021/07/31 05:24:44;;;;;;;19.27;5.18;;;;;;;34.97;32.81;100257.16;5031870;28;20442;-70
2021/07/31 05:27:12;;;;;;;18.98;4.85;;;;;;;35.27;32.20;100259.75;5032706;28;20041;-71
2021/07/31 05:29:40;;;;;;;16.08;4.95;;;;;;;35.52;31.85;100258.25;5015321;28;20033;-70
2021/07/31 05:32:09;;;;;;;18.52;4.97;;;;;;;35.79;31.07;100255.59;5023186;28;20394;-68
2021/07/31 05:34:36;;;;;;;15.73;4.90;;;;;;;36.02;30.61;100253.34;5032343;28;20052;-71
2021/07/31 05:37:04;;;;;;;18.30;4.72;;;;;;;36.25;30.55;100253.81;5029710;28;20509;-71
2021/07/31 05:39:33;;;;;;;17.83;5.07;;;;;;;36.44;29.81;100258.34;5031909;28;20076;-71
2021/07/31 05:42:05;;;;;;;14.27;5.13;;;;;;;36.61;29.20;100252.00;5030359;28;20068;-71
2021/07/31 05:44:33;;;;;;;14.52;4.90;;;;;;;36.79;28.96;100252.91;5015112;28;20041;-70
2021/07/31 05:47:00;;;;;;;20.33;5.38;;;;;;;37.01;28.25;100252.44;5023468;28;20437;-71
2021/07/31 05:49:30;;;;;;;13.80;5.22;;;;;;;37.23;28.04;100256.59;5030949;28;20060;-70
2021/07/31 05:51:58;;;;;;;16.55;4.90;;;;;;;37.48;27.92;100252.16;5031826;28;20049;-71
2021/07/31 05:54:25;;;;;;;13.65;5.63;;;;;;;37.62;27.72;100258.97;5032264;28;20053;-70
2021/07/31 05:56:52;;;;;;;20.63;4.32;;;;;;;37.83;27.32;100254.81;5027864;28;20514;-71
2021/07/31 05:59:21;;;;;;;13.40;5.00;;;;;;;38.00;26.87;100264.06;5023944;28;20046;-70
2021/07/31 06:01:48;;;;;;;12.07;4.53;;;;;;;38.23;26.55;100245.03;5020942;28;20491;-71
2021/07/31 06:04:16;;;;;;;11.57;4.90;;;;;;;38.25;26.25;100252.13;5031476;28;20038;-71
2021/07/31 06:06:43;;;;;;;17.35;4.47;;;;;;;38.36;25.98;100258.34;5027399;28;20050;-71
2021/07/31 06:09:10;;;;;;;15.30;4.78;;;;;;;38.42;25.78;100258.56;5031501;28;20183;-70
2021/07/31 06:11:38;;;;;;;17.08;5.00;;;;;;;38.38;25.59;100267.34;5031505;28;20041;-67
2021/07/31 06:14:05;;;;;;;18.77;5.38;;;;;;;38.61;25.48;100265.69;5022326;28;20114;-71
2021/07/31 06:16:34;;;;;;;18.88;5.32;;;;;;;38.77;25.24;100262.13;5023073;28;20049;-71
2021/07/31 06:19:01;;;;;;;18.65;6.78;;;;;;;38.85;25.31;100259.38;5031951;28;20068;-71
2021/07/31 06:21:28;;;;;;;17.25;4.95;;;;;;;38.87;24.76;100271.97;5031090;28;20045;-71
2021/07/31 06:23:56;;;;;;;12.40;4.55;;;;;;;38.94;24.87;100261.13;5030265;28;20037;-69
2021/07/31 06:26:23;;;;;;;17.70;4.88;;;;;;;39.07;24.56;100261.47;5026826;28;20037;-70
2021/07/31 06:28:50;;;;;;;13.02;4.80;;;;;;;39.19;24.35;100271.16;5022534;28;20045;-71
2021/07/31 06:31:17;;;;;;;15.35;4.57;;;;;;;39.25;24.44;100266.84;5029586;28;20525;-70
2021/07/31 06:33:46;;;;;;;13.63;4.88;;;;;;;39.38;24.35;100267.22;5031940;28;20038;-70
2021/07/31 06:36:18;;;;;;;18.90;5.57;;;;;;;39.39;23.98;100267.03;5031897;28;20049;-70
2021/07/31 06:38:45;;;;;;;13.73;4.60;;;;;;;39.36;23.89;100266.53;5028821;28;20465;-70
2021/07/31 06:41:12;;;;;;;17.17;4.70;;;;;;;39.47;23.98;100263.41;5020527;28;20057;-70
2021/07/31 06:43:39;;;;;;;20.35;5.05;;;;;;;39.44;23.96;100270.16;5021699;28;20052;-69
2021/07/31 06:46:11;;;;;;;15.55;4.32;;;;;;;39.54;23.40;100269.09;5029968;28;20045;-70
2021/07/31 06:48:38;;;;;;;13.57;4.68;;;;;;;39.51;23.57;100272.22;5023921;28;20406;-68
2021/07/31 06:51:07;;;;;;;13.00;4.00;;;;;;;39.51;23.38;100272.22;5024537;28;20046;-70
2021/07/31 06:53:35;;;;;;;12.70;4.75;;;;;;;39.56;23.33;100272.56;5015236;28;20092;-70
2021/07/31 06:56:03;;;;;;;14.90;4.53;;;;;;;39.58;23.14;100273.25;5019258;28;20053;-70
2021/07/31 06:58:31;;;;;;;16.08;4.75;;;;;;;39.71;23.27;100285.50;5015712;28;20514;-72
2021/07/31 07:00:58;;;;;;;13.07;4.22;;;;;;;39.79;22.82;100279.97;5008663;28;20110;-70
2021/07/31 07:03:26;;;;;;;13.80;4.20;;;;;;;39.81;22.78;100275.13;5011500;28;20038;-70
2021/07/31 07:05:53;;;;;;;14.98;4.70;;;;;;;39.90;22.50;100275.97;5011099;28;20048;-70
2021/07/31 07:08:22;;;;;;;13.73;4.25;;;;;;;39.95;22.57;100280.97;5011630;28;20046;-70
2021/07/31 07:10:50;;;;;;;17.92;5.70;;;;;;;39.99;22.58;100283.19;5014169;28;20038;-70
2021/07/31 07:13:17;;;;;;;15.45;4.28;;;;;;;40.21;22.51;100284.34;5015057;28;20056;-70
2021/07/31 07:15:44;;;;;;;10.63;4.00;;;;;;;40.29;22.64;100280.69;5017603;28;20050;-70
2021/07/31 07:18:11;;;;;;;17.02;5.03;;;;;;;40.41;22.38;100276.50;5018013;28;20052;-70
2021/07/31 07:20:39;;;;;;;12.63;4.57;;;;;;;40.55;22.42;100278.50;5024521;28;20499;-69
2021/07/31 07:23:06;;;;;;;21.42;5.28;;;;;;;40.68;22.06;100284.34;5013274;28;20053;-70
2021/07/31 07:25:35;;;;;;;14.68;4.43;;;;;;;40.75;21.96;100278.94;5010947;28;20050;-70
2021/07/31 07:28:03;;;;;;;10.85;4.20;;;;;;;40.69;21.86;100283.28;5018677;28;20538;-71
2021/07/31 07:30:30;;;;;;;13.77;4.47;;;;;;;40.76;21.56;100284.28;5029686;28;20395;-70
2021/07/31 07:32:57;;;;;;;16.05;4.43;;;;;;;40.88;21.74;100290.25;5021566;28;20159;-70
2021/07/31 07:35:25;;;;;;;14.43;5.32;;;;;;;40.92;21.45;100289.72;5011073;28;20053;-69
2021/07/31 07:37:52;;;;;;;14.93;4.65;;;;;;;40.90;21.35;100286.25;5012575;28;20443;-70
2021/07/31 07:40:19;;;;;;;14.35;4.32;;;;;;;40.96;21.35;100281.91;5011345;28;20511;-69
2021/07/31 07:42:48;;;;;;;15.13;4.50;;;;;;;41.04;21.17;100283.72;5010984;28;20545;-70
2021/07/31 07:45:15;;;;;;;15.25;4.40;;;;;;;40.97;20.89;100294.69;5010883;28;20046;-70
2021/07/31 07:47:43;;;;;;;13.93;4.47;;;;;;;40.99;21.07;100284.28;5010922;28;20048;-70
2021/07/31 07:50:11;;;;;;;14.95;4.55;;;;;;;41.02;20.87;100281.16;5010929;28;20046;-70
2021/07/31 07:52:38;;;;;;;16.88;5.07;;;;;;;41.08;20.64;100274.03;5011681;28;20510;-68
2021/07/31 07:55:06;;;;;;;16.02;4.40;;;;;;;41.18;20.86;100294.03;5019136;28;20033;-70
2021/07/31 07:57:33;;;;;;;14.27;4.03;;;;;;;41.24;20.71;100287.75;5030707;28;20579;-70
2021/07/31 08:00:04;;;;;;;14.48;4.25;;;;;;;41.25;20.56;100297.78;5029555;28;20046;-70
2021/07/31 08:02:31;;;;;;;12.73;4.05;;;;;;;41.30;20.53;100296.19;5011648;28;20049;-70
2021/07/31 08:04:58;;;;;;;17.02;4.47;;;;;;;41.43;20.59;100295.56;5010877;28;20089;-70
2021/07/31 08:07:26;;;;;;;17.13;4.82;;;;;;;41.50;20.47;100295.69;5010724;28;20053;-71
2021/07/31 08:09:54;;;;;;;12.82;4.18;;;;;;;41.63;20.24;100296.78;5009197;28;20061;-70
2021/07/31 08:12:21;;;;;;;13.40;4.30;;;;;;;41.63;20.22;100296.78;5011294;28;20058;-70
2021/07/31 08:14:50;;;;;;;11.13;4.78;;;;;;;41.62;20.15;100294.19;5010750;28;20410;-70
2021/07/31 08:17:19;;;;;;;15.80;4.55;;;;;;;41.62;19.75;100288.63;5010510;28;20096;-70
2021/07/31 08:19:46;;;;;;;13.90;4.43;;;;;;;41.59;19.69;100280.72;5011067;28;20404;-70
2021/07/31 08:22:13;;;;;;;22.27;4.47;;;;;;;41.63;19.88;100293.16;5010650;28;20049;-69
2021/07/31 08:24:41;;;;;;;19.73;4.65;;;;;;;41.60;19.80;100294.41;5010769;28;20113;-70
2021/07/31 08:27:08;;;;;;;13.60;5.25;;;;;;;41.57;19.72;100299.44;5012305;28;20049;-70
2021/07/31 08:29:35;;;;;;;11.25;4.30;;;;;;;41.56;19.93;100298.59;5029045;28;20038;-70
2021/07/31 08:32:03;;;;;;;11.98;4.22;;;;;;;41.45;20.11;100300.91;5029399;28;20133;-70
2021/07/31 08:34:32;;;;;;;16.23;5.03;;;;;;;41.49;20.36;100302.31;5030686;28;20065;-69
2021/07/31 08:37:02;;;;;;;17.65;4.85;;;;;;;41.56;20.25;100304.13;5029992;28;20061;-69
2021/07/31 08:39:30;;;;;;;14.57;4.43;;;;;;;41.62;20.25;100297.81;5027194;28;20052;-69
2021/07/31 08:41:58;;;;;;;12.30;4.53;;;;;;;41.64;20.31;100292.97;5012069;28;20056;-70
2021/07/31 08:44:25;;;;;;;22.55;6.13;;;;;;;41.72;20.12;100295.66;5029677;28;20038;-70
2021/07/31 08:46:52;;;;;;;13.20;5.43;;;;;;;41.76;20.06;100291.44;5034049;28;20571;-70
2021/07/31 08:49:20;;;;;;;15.73;4.75;;;;;;;41.84;19.86;100297.97;5033008;28;20598;-70
2021/07/31 08:51:50;;;;;;;13.20;4.50;;;;;;;41.74;20.02;100304.66;5032415;28;20121;-69
2021/07/31 08:54:17;;;;;;;18.45;5.20;;;;;;;41.67;19.81;100298.16;5030560;28;20068;-70
2021/07/31 08:56:45;;;;;;;15.75;4.88;;;;;;;41.74;19.88;100289.94;5033922;28;20394;-70
2021/07/31 08:59:12;;;;;;;12.82;4.07;;;;;;;41.77;19.86;100300.63;5032934;28;20132;-70
2021/07/31 09:01:40;;;;;;;18.67;4.68;;;;;;;41.66;19.71;100293.66;5013793;28;20052;-69
2021/07/31 09:04:15;;;;;;;20.83;4.78;;;;;;;41.69;19.65;100290.47;5016891;28;20041;-69
2021/07/31 09:06:44;;;;;;;15.18;4.72;;;;;;;41.81;19.84;100296.44;5013652;28;20096;-70
2021/07/31 09:09:13;;;;;;;17.98;4.95;;;;;;;41.93;19.73;100303.28;5023621;28;20041;-69
2021/07/31 09:11:56;;;;;;;16.17;4.68;;;;;;;41.91;19.62;100299.81;5033855;28;20060;-69
2021/07/31 09:14:23;;;;;;;13.00;4.32;;;;;;;41.74;19.88;100296.34;5033671;28;20041;-70
2021/07/31 09:16:51;;;;;;;15.65;5.50;;;;;;;41.84;19.55;100300.72;5032222;28;20034;-69
2021/07/31 09:19:19;;;;;;;11.13;5.03;;;;;;;41.94;19.26;100305.00;5022278;28;20033;-70
2021/07/31 09:21:48;;;;;;;13.85;4.38;;;;;;;41.95;19.16;100301.16;5014094;28;20041;-70
2021/07/31 09:24:20;;;;;;;18.13;5.05;;;;;;;42.08;19.12;100294.94;5013893;28;20038;-70
2021/07/31 09:26:49;;;;;;;13.32;4.45;;;;;;;42.18;19.03;100295.53;5013780;28;20061;-69
2021/07/31 09:29:20;;;;;;;13.20;4.03;;;;;;;42.21;19.00;100292.34;5023809;28;20041;-70
2021/07/31 09:31:54;;;;;;;15.77;5.32;;;;;;;42.16;18.80;100294.84;5016313;28;20104;-69
2021/07/31 09:34:32;;;;;;;17.50;5.68;;;;;;;42.17;18.84;100288.25;5012882;28;20046;-69
2021/07/31 09:37:16;;;;;;;21.13;4.80;;;;;;;42.16;18.73;100297.63;5011635;28;20116;-69
2021/07/31 09:40:05;;;;;;;15.15;4.28;;;;;;;42.05;18.64;100298.09;5011998;28;20050;-69
2021/07/31 09:42:34;;;;;;;16.90;4.70;;;;;;;41.76;18.98;100288.66;5011214;28;20042;-69
2021/07/31 09:45:03;;;;;;;15.50;5.00;;;;;;;41.89;19.07;100289.91;5012161;28;20412;-70
2021/07/31 09:47:31;;;;;;;13.80;4.35;;;;;;;41.91;18.99;100290.63;5013904;28;20484;-69
2021/07/31 09:49:59;;;;;;;16.60;4.72;;;;;;;41.91;18.99;100296.19;5013037;28;20038;-69
2021/07/31 09:52:28;;;;;;;19.92;5.30;;;;;;;41.69;18.66;100290.47;5032797;28;20033;-69
2021/07/31 09:54:58;;;;;;;12.02;4.60;;;;;;;41.66;18.66;100295.56;5032465;28;20037;-70
2021/07/31 09:57:27;;;;;;;14.60;4.25;;;;;;;41.73;18.55;100297.38;5032037;28;20063;-69
2021/07/31 09:59:59;;;;;;;14.73;4.43;;;;;;;41.80;18.64;100285.53;5032769;28;20049;-69
2021/07/31 10:02:27;;;;;;;14.82;4.45;;;;;;;41.83;18.55;100296.22;5016573;28;20061;-69
2021/07/31 10:04:55;;;;;;;13.02;4.50;;;;;;;41.72;18.94;100289.25;5023717;28;20046;-69
2021/07/31 10:07:22;;;;;;;16.23;4.90;;;;;;;41.48;19.05;100290.34;5032647;28;20089;-69
2021/07/31 10:09:52;;;;;;;16.95;7.78;;;;;;;41.42;19.15;100288.31;5032125;28;20570;-69
2021/07/31 10:12:26;;;;;;;17.48;5.28;;;;;;;41.45;18.90;100292.59;5014962;28;20042;-70
2021/07/31 10:14:54;;;;;;;15.40;4.72;;;;;;;41.45;18.93;100293.47;5012979;28;20422;-69
2021/07/31 10:17:28;;;;;;;12.00;4.68;;;;;;;41.43;18.64;100297.47;5012408;28;20045;-69
2021/07/31 10:19:56;;;;;;;14.73;5.20;;;;;;;41.38;18.94;100295.25;5012704;28;20096;-70
2021/07/31 10:22:44;;;;;;;18.67;4.72;;;;;;;41.12;19.04;100303.97;5030445;28;20034;-69
2021/07/31 10:25:12;;;;;;;17.90;5.30;;;;;;;41.11;19.32;100305.00;5028906;28;20115;-69
2021/07/31 10:27:43;;;;;;;14.10;4.43;;;;;;;41.22;19.14;100298.19;5030348;28;20276;-68
2021/07/31 10:30:29;;;;;;;16.73;4.68;;;;;;;41.16;19.20;100293.38;5031523;28;20103;-67
2021/07/31 10:32:58;;;;;;;22.75;4.97;;;;;;;41.14;19.39;100299.09;5013472;28;20377;-69
2021/07/31 10:35:37;;;;;;;16.23;4.95;;;;;;;40.49;19.60;100293.94;5012409;28;20050;-68
2021/07/31 10:38:07;;;;;;;14.60;5.03;;;;;;;40.41;19.34;100293.09;5011929;28;20056;-69
2021/07/31 10:40:46;;;;;;;19.15;4.82;;;;;;;40.37;19.61;100287.03;5015754;28;20037;-69
2021/07/31 10:43:17;;;;;;;16.25;4.32;;;;;;;40.18;19.68;100285.53;5020941;28;20037;-69
2021/07/31 10:45:45;;;;;;;14.63;4.70;;;;;;;40.26;19.83;100284.69;5012338;28;20499;-70
2021/07/31 10:48:33;;;;;;;16.42;4.43;;;;;;;40.27;19.33;100286.41;5012089;28;20118;-68
2021/07/31 10:51:01;;;;;;;17.40;5.00;;;;;;;40.21;19.38;100268.59;5012055;28;20495;-69
2021/07/31 10:53:52;;;;;;;22.15;5.30;;;;;;;40.36;19.21;100267.88;5014847;28;20512;-69
2021/07/31 10:56:20;;;;;;;13.82;5.00;;;;;;;40.43;19.19;100275.28;5013621;28;20129;-69
2021/07/31 10:59:23;;;;;;;16.65;4.93;;;;;;;40.47;19.37;100265.56;5011406;28;20038;-70
2021/07/31 11:02:31;;;;;;;16.25;4.90;;;;;;;40.41;19.31;100265.41;5011773;28;20122;-70
2021/07/31 11:05:00;;;;;;;18.50;5.05;;;;;;;40.34;19.43;100258.88;5025060;28;20407;-69
2021/07/31 11:07:29;;;;;;;17.55;5.70;;;;;;;40.54;19.27;100261.03;5014845;28;20454;-69
2021/07/31 11:10:34;;;;;;;16.55;4.60;;;;;;;40.70;19.23;100268.38;5011632;28;20034;-69
2021/07/31 11:13:02;;;;;;;14.65;4.32;;;;;;;40.66;19.30;100268.94;5011285;28;20061;-69
2021/07/31 11:15:29;;;;;;;26.67;5.13;;;;;;;40.73;19.04;100256.94;5011817;28;20034;-70
2021/07/31 11:18:01;;;;;;;20.13;5.05;;;;;;;40.67;19.39;100256.81;5031366;28;20380;-69
2021/07/31 11:20:32;;;;;;;18.10;5.35;;;;;;;40.76;19.08;100251.06;5030961;28;20096;-69
2021/07/31 11:23:06;;;;;;;13.68;4.40;;;;;;;40.66;19.07;100253.19;5021872;28;20042;-69
2021/07/31 11:25:34;;;;;;;13.68;4.40;;;;;;;40.61;19.23;100250.06;5011529;28;20038;-70